Time;durP1;ratioP1;P1;durP2;ratioP2;P2;SDS_P1;SDS_P2;PMS_P1;PMS_P2;Temp;Humidity;BMP_temperature;BMP_pressure;BME280_temperature;BME280_humidity;BME280_pressure;Samples;Min_cycle;Max_cycle;Signal;HPM_P1;HPM_P2
2023/02/22 00:02:11;;;;;;;29.00;15.00;;;;;;;4.50;76.10;97084.91;108985;1251;99989;-73
2023/02/22 00:04:40;;;;;;;30.00;12.70;;;;;;;4.48;76.19;97091.66;108932;1252;95664;-75
2023/02/22 00:07:08;;;;;;;31.20;14.10;;;;;;;4.47;76.13;97090.37;109072;1251;96018;-73
2023/02/22 00:09:36;;;;;;;26.40;14.40;;;;;;;4.47;76.31;97088.20;109052;1251;103462;-77
2023/02/22 00:12:05;;;;;;;29.00;14.40;;;;;;;4.47;76.36;97085.64;108974;1250;101251;-74
2023/02/22 00:14:33;;;;;;;27.00;13.60;;;;;;;4.46;76.49;97088.20;108738;1251;99792;-73
2023/02/22 00:17:01;;;;;;;30.60;15.10;;;;;;;4.46;76.60;97090.70;109012;1250;95580;-75
2023/02/22 00:19:29;;;;;;;30.10;13.50;;;;;;;4.46;76.54;97094.23;109041;1250;96044;-74
2023/02/22 00:21:58;;;;;;;29.50;13.90;;;;;;;4.47;76.65;97092.70;109040;1251;102038;-74
2023/02/22 00:24:28;;;;;;;34.00;14.90;;;;;;;4.48;76.66;97092.77;108794;1251;100418;-74
2023/02/22 00:26:56;;;;;;;26.40;14.20;;;;;;;4.48;76.65;97091.73;108976;1250;99854;-74
2023/02/22 00:29:25;;;;;;;32.20;14.00;;;;;;;4.48;76.76;97092.23;109004;1250;95559;-74
2023/02/22 00:31:54;;;;;;;26.70;14.10;;;;;;;4.46;76.64;97091.74;108997;1250;96006;-73
2023/02/22 00:34:23;;;;;;;28.50;13.30;;;;;;;4.44;76.67;97092.76;109055;1250;103272;-76
2023/02/22 00:36:51;;;;;;;33.50;15.90;;;;;;;4.43;76.78;97091.83;109044;1250;101232;-76
2023/02/22 00:39:19;;;;;;;35.80;15.30;;;;;;;4.42;76.73;97094.38;109021;1249;99505;-75
2023/02/22 00:41:48;;;;;;;32.40;16.30;;;;;;;4.41;76.86;97095.61;108951;1251;96003;-76
2023/02/22 00:44:16;;;;;;;33.10;15.70;;;;;;;4.41;76.94;97095.08;109024;1249;96013;-73
2023/02/22 00:46:44;;;;;;;35.10;15.50;;;;;;;4.41;76.90;97097.02;109011;1250;111900;-74
2023/02/22 00:49:12;;;;;;;38.60;17.60;;;;;;;4.39;76.97;97095.42;109055;1250;101042;-73
2023/02/22 00:51:41;;;;;;;39.90;16.50;;;;;;;4.40;77.07;97098.60;109000;1250;99695;-76
2023/02/22 00:54:09;;;;;;;34.40;16.50;;;;;;;4.39;77.02;97102.38;109012;1251;95586;-74
2023/02/22 00:56:37;;;;;;;37.80;17.70;;;;;;;4.38;77.01;97100.77;109077;1251;95997;-73
2023/02/22 00:59:06;;;;;;;37.10;17.10;;;;;;;4.35;76.91;97104.60;109117;1250;103319;-74
2023/02/22 01:01:34;;;;;;;41.70;16.80;;;;;;;4.31;77.04;97106.12;108708;1250;102439;-75
2023/02/22 01:04:02;;;;;;;33.50;16.50;;;;;;;4.30;77.24;97107.56;109034;1250;99800;-73
2023/02/22 01:06:30;;;;;;;37.50;17.00;;;;;;;4.30;77.12;97112.24;108977;1249;95566;-74
2023/02/22 01:08:58;;;;;;;33.60;15.50;;;;;;;4.30;77.32;97112.74;109096;1251;96414;-73
2023/02/22 01:11:27;;;;;;;36.60;16.60;;;;;;;4.29;77.26;97114.59;108775;1254;103475;-76
2023/02/22 01:13:56;;;;;;;37.70;16.80;;;;;;;4.31;77.36;97118.18;109040;1251;101149;-74
2023/02/22 01:16:24;;;;;;;36.60;17.00;;;;;;;4.31;77.37;97117.70;108985;1250;100091;-73
2023/02/22 01:18:52;;;;;;;30.70;15.90;;;;;;;4.32;77.41;97121.21;108654;1251;95594;-74
2023/02/22 01:21:21;;;;;;;35.10;17.50;;;;;;;4.31;77.43;97119.05;108724;1251;96578;-74
2023/02/22 01:23:49;;;;;;;36.00;17.40;;;;;;;4.31;77.49;97121.45;109067;1250;103755;-73
2023/02/22 01:26:17;;;;;;;41.30;16.70;;;;;;;4.32;77.55;97114.10;109049;1250;101351;-72
2023/02/22 01:28:45;;;;;;;28.80;15.50;;;;;;;4.33;77.59;97110.25;109065;1250;99980;-74
2023/02/22 01:31:13;;;;;;;33.40;16.50;;;;;;;4.33;77.62;97112.69;109008;1249;95534;-75
2023/02/22 01:33:41;;;;;;;31.30;16.10;;;;;;;4.33;77.46;97113.13;109029;1249;96025;-77
2023/02/22 01:36:10;;;;;;;35.70;16.80;;;;;;;4.31;77.43;97109.90;109057;1251;102218;-74
2023/02/22 01:38:39;;;;;;;35.50;17.60;;;;;;;4.31;77.56;97111.13;109003;1250;101493;-73
2023/02/22 01:41:08;;;;;;;31.10;16.20;;;;;;;4.30;77.69;97114.48;108732;1250;100663;-74
2023/02/22 01:43:36;;;;;;;33.50;14.80;;;;;;;4.28;77.62;97113.12;109021;1249;95626;-76
2023/02/22 01:46:21;;;;;;;28.80;14.60;;;;;;;4.22;77.72;97116.18;109049;1249;96027;-74
2023/02/22 01:49:00;;;;;;;28.80;12.70;;;;;;;4.17;77.85;97115.52;109044;1249;103561;-77
2023/02/22 01:51:41;;;;;;;32.70;14.00;;;;;;;4.15;77.88;97115.69;108956;1250;101746;-74
2023/02/22 01:54:15;;;;;;;26.60;14.50;;;;;;;4.16;77.94;97116.16;109039;1250;99972;-77
2023/02/22 01:57:25;;;;;;;31.90;16.00;;;;;;;4.16;77.98;97114.88;109045;1250;95597;-74
2023/02/22 01:59:56;;;;;;;35.20;15.80;;;;;;;4.14;78.02;97114.83;109009;1251;95948;-72
2023/02/22 02:02:25;;;;;;;34.80;15.30;;;;;;;4.11;78.02;97108.21;108703;1251;102719;-74
2023/02/22 02:04:56;;;;;;;32.30;15.70;;;;;;;4.09;78.00;97110.11;108730;1251;101791;-73
2023/02/22 02:07:25;;;;;;;33.50;15.50;;;;;;;4.07;78.09;97107.21;108668;1249;100023;-73
2023/02/22 02:10:03;;;;;;;29.90;14.80;;;;;;;4.07;78.04;97106.85;108995;1251;95517;-74
2023/02/22 02:12:36;;;;;;;29.00;13.30;;;;;;;4.07;78.20;97104.80;109020;1250;95927;-75
2023/02/22 02:15:21;;;;;;;32.90;14.90;;;;;;;4.07;78.11;97105.48;109018;1250;103756;-74
2023/02/22 02:17:52;;;;;;;28.10;14.50;;;;;;;4.07;78.16;97108.65;108751;1249;101459;-74
2023/02/22 02:20:27;;;;;;;31.10;14.80;;;;;;;4.05;78.08;97106.83;109003;1249;100054;-74
2023/02/22 02:23:14;;;;;;;28.70;13.60;;;;;;;4.02;78.20;97109.27;108671;1251;95882;-73
2023/02/22 02:26:10;;;;;;;31.80;13.40;;;;;;;4.01;78.29;97108.80;108879;1249;95986;-74
2023/02/22 02:29:12;;;;;;;29.20;13.80;;;;;;;4.01;78.30;97103.67;109085;1251;103694;-75
2023/02/22 02:31:56;;;;;;;29.10;14.50;;;;;;;4.01;78.38;97102.30;109060;1250;101420;-74
2023/02/22 02:35:02;;;;;;;25.90;13.60;;;;;;;3.97;78.26;97096.86;109046;1249;99908;-75
2023/02/22 02:37:39;;;;;;;32.20;14.30;;;;;;;3.91;78.44;97101.64;108207;1258;95678;-72
2023/02/22 02:40:22;;;;;;;30.60;15.50;;;;;;;3.89;78.51;97108.18;108248;1259;96072;-73
2023/02/22 02:43:05;;;;;;;32.40;15.90;;;;;;;3.91;78.47;97108.74;108243;1259;103453;-77
2023/02/22 02:45:43;;;;;;;34.70;15.10;;;;;;;3.90;78.48;97109.55;108157;1259;100504;-74
2023/02/22 02:48:14;;;;;;;30.60;14.90;;;;;;;3.88;78.61;97105.48;108283;1259;99501;-75
2023/02/22 02:50:48;;;;;;;30.00;15.40;;;;;;;3.89;78.60;97107.35;108163;1259;95880;-75
2023/02/22 02:53:22;;;;;;;34.90;16.00;;;;;;;3.90;78.68;97108.08;108291;1258;96097;-73
2023/02/22 02:55:50;;;;;;;29.00;14.90;;;;;;;3.90;78.63;97107.95;108293;1259;103570;-73
2023/02/22 02:58:23;;;;;;;31.20;14.10;;;;;;;3.86;78.62;97104.27;108299;1259;101453;-76
2023/02/22 03:00:55;;;;;;;33.90;15.60;;;;;;;3.85;78.59;97104.12;108268;1259;99967;-73
2023/02/22 03:03:36;;;;;;;27.60;13.70;;;;;;;3.81;78.58;97104.90;108052;1259;95636;-73
2023/02/22 03:06:22;;;;;;;27.30;12.90;;;;;;;3.80;78.72;97104.35;108325;1258;96562;-72
2023/02/22 03:09:06;;;;;;;33.30;14.90;;;;;;;3.80;78.74;97108.21;108272;1259;103526;-76
2023/02/22 03:11:47;;;;;;;28.90;14.50;;;;;;;3.78;78.76;97107.89;108290;1258;101167;-74
2023/02/22 03:14:33;;;;;;;28.30;14.50;;;;;;;3.75;78.73;97107.53;108514;1251;100007;-73
2023/02/22 03:17:11;;;;;;;31.00;15.90;;;;;;;3.76;78.83;97109.27;108860;1251;95580;-74
2023/02/22 03:19:57;;;;;;;32.30;15.30;;;;;;;3.77;78.80;97109.79;108891;1251;96189;-77
2023/02/22 03:22:33;;;;;;;33.60;14.40;;;;;;;3.76;78.82;97113.65;108906;1251;103529;-73
2023/02/22 03:25:06;;;;;;;32.20;15.40;;;;;;;3.72;78.91;97115.55;108921;1251;101366;-77
2023/02/22 03:27:52;;;;;;;30.30;14.60;;;;;;;3.70;78.79;97117.23;108839;1251;100226;-73
2023/02/22 03:30:28;;;;;;;29.00;13.60;;;;;;;3.67;78.88;97123.44;108916;1251;95546;-76
2023/02/22 03:33:07;;;;;;;27.70;13.60;;;;;;;3.66;78.90;97122.30;108945;1251;95965;-75
2023/02/22 03:35:40;;;;;;;26.70;12.40;;;;;;;3.65;79.06;97120.51;108917;1251;103878;-76
2023/02/22 03:38:12;;;;;;;25.70;12.90;;;;;;;3.62;79.02;97125.36;108618;1251;109080;-73
2023/02/22 03:40:45;;;;;;;25.90;13.50;;;;;;;3.64;79.10;97128.79;108741;1251;100108;-73
2023/02/22 03:43:18;;;;;;;25.70;12.80;;;;;;;3.65;79.10;97125.27;108884;1251;95653;-74
2023/02/22 03:45:50;;;;;;;26.40;13.50;;;;;;;3.66;79.05;97129.11;108924;1251;96093;-73
2023/02/22 03:48:44;;;;;;;28.20;14.20;;;;;;;3.66;78.99;97128.91;108897;1251;102585;-76
2023/02/22 03:51:14;;;;;;;30.70;14.20;;;;;;;3.65;78.99;97127.34;108910;1251;101930;-73
2023/02/22 03:53:44;;;;;;;29.40;13.60;;;;;;;3.65;78.95;97129.75;108827;1251;100564;-74
2023/02/22 03:56:19;;;;;;;31.90;15.60;;;;;;;3.64;79.03;97129.11;108590;1251;95572;-73
2023/02/22 03:58:48;;;;;;;32.20;14.20;;;;;;;3.64;79.07;97129.86;108890;1251;96057;-73
2023/02/22 04:01:16;;;;;;;35.30;14.60;;;;;;;3.63;79.02;97132.02;108885;1250;103969;-73
2023/02/22 04:03:45;;;;;;;31.70;14.30;;;;;;;3.63;79.00;97131.69;108588;1251;101077;-74
2023/02/22 04:06:13;;;;;;;33.10;14.30;;;;;;;3.64;79.01;97133.55;108706;1251;99842;-74
2023/02/22 04:08:42;;;;;;;30.50;13.90;;;;;;;3.64;79.05;97133.59;108680;1254;95667;-74
2023/02/22 04:11:11;;;;;;;30.50;14.30;;;;;;;3.62;79.01;97133.82;108945;1250;96040;-73
2023/02/22 04:13:39;;;;;;;35.20;14.20;;;;;;;3.61;79.19;97135.49;108783;1249;104652;-74
2023/02/22 04:16:07;;;;;;;31.00;14.40;;;;;;;3.61;79.22;97139.56;109043;1249;101887;-73
2023/02/22 04:18:35;;;;;;;30.40;15.20;;;;;;;3.62;79.10;97139.36;108982;1249;99240;-73
2023/02/22 04:21:04;;;;;;;34.90;15.60;;;;;;;3.62;79.12;97136.86;108988;1250;95550;-74
2023/02/22 04:23:32;;;;;;;32.20;14.50;;;;;;;3.61;79.04;97135.86;109015;1250;96363;-73
2023/02/22 04:26:00;;;;;;;28.40;14.70;;;;;;;3.60;79.23;97132.16;109038;1250;102474;-74
2023/02/22 04:28:28;;;;;;;32.60;14.60;;;;;;;3.61;79.05;97132.30;109042;1250;101318;-73
2023/02/22 04:30:56;;;;;;;32.20;15.30;;;;;;;3.62;79.18;97133.45;108994;1249;100143;-76
2023/02/22 04:33:24;;;;;;;28.30;14.60;;;;;;;3.62;79.24;97128.84;108983;1250;95542;-74
2023/02/22 04:35:52;;;;;;;31.00;16.00;;;;;;;3.62;79.25;97130.98;109040;1249;96119;-74
2023/02/22 04:38:20;;;;;;;29.80;16.90;;;;;;;3.58;79.24;97128.90;109060;1249;103048;-73
2023/02/22 04:40:48;;;;;;;27.80;15.20;;;;;;;3.54;79.20;97132.21;109003;1250;101033;-74
2023/02/22 04:43:17;;;;;;;30.40;16.30;;;;;;;3.53;79.36;97133.94;108675;1251;100241;-74
2023/02/22 04:45:45;;;;;;;31.20;16.00;;;;;;;3.53;79.40;97134.27;108684;1250;95643;-74
2023/02/22 04:48:13;;;;;;;35.20;17.30;;;;;;;3.54;79.39;97133.80;109015;1250;96058;-75
2023/02/22 04:50:41;;;;;;;32.80;16.50;;;;;;;3.55;79.44;97129.40;109074;1250;103504;-76
2023/02/22 04:53:11;;;;;;;31.90;16.30;;;;;;;3.56;79.40;97131.64;109089;1250;101769;-73
2023/02/22 04:55:39;;;;;;;25.70;15.90;;;;;;;3.55;79.48;97134.05;108694;1250;100114;-73
2023/02/22 04:58:07;;;;;;;33.80;16.90;;;;;;;3.55;79.62;97134.77;108765;1251;95596;-74
2023/02/22 05:00:35;;;;;;;32.00;15.70;;;;;;;3.56;79.48;97133.08;109058;1250;95982;-74
2023/02/22 05:03:04;;;;;;;34.10;15.30;;;;;;;3.54;79.42;97134.05;109023;1250;103567;-77
2023/02/22 05:05:32;;;;;;;34.70;16.10;;;;;;;3.54;79.56;97140.45;109022;1249;100380;-73
2023/02/22 05:08:00;;;;;;;32.40;15.70;;;;;;;3.53;79.57;97141.75;108984;1249;99850;-76
2023/02/22 05:10:28;;;;;;;32.60;16.90;;;;;;;3.49;79.66;97139.17;109039;1250;95563;-73
2023/02/22 05:12:57;;;;;;;34.40;15.50;;;;;;;3.46;79.81;97138.66;108974;1250;96101;-74
2023/02/22 05:15:25;;;;;;;32.90;17.20;;;;;;;3.43;79.85;97137.36;108734;1251;104638;-73
2023/02/22 05:17:53;;;;;;;30.50;16.30;;;;;;;3.44;79.99;97138.02;108674;1250;102212;-73
2023/02/22 05:20:26;;;;;;;35.30;18.30;;;;;;;3.45;79.95;97137.48;109005;1249;99676;-74
2023/02/22 05:22:59;;;;;;;31.80;16.50;;;;;;;3.46;80.00;97140.59;108930;1249;95561;-74
2023/02/22 05:25:28;;;;;;;36.50;17.00;;;;;;;3.48;79.99;97141.86;108989;1250;95993;-73
2023/02/22 05:28:05;;;;;;;37.30;17.40;;;;;;;3.49;79.97;97137.33;108730;1249;103807;-74
2023/02/22 05:30:38;;;;;;;31.10;15.90;;;;;;;3.46;79.86;97137.02;109045;1249;101273;-74
2023/02/22 05:33:06;;;;;;;36.10;17.10;;;;;;;3.45;79.84;97141.92;109035;1250;99937;-76
2023/02/22 05:35:35;;;;;;;37.50;17.40;;;;;;;3.47;79.95;97141.20;109013;1249;95844;-73
2023/02/22 05:38:05;;;;;;;31.50;16.80;;;;;;;3.48;79.90;97144.36;108997;1250;95970;-74
2023/02/22 05:40:34;;;;;;;30.80;16.60;;;;;;;3.48;79.86;97146.92;108738;1251;111856;-74
2023/02/22 05:43:02;;;;;;;32.10;15.50;;;;;;;3.49;80.01;97147.95;108705;1251;101719;-74
2023/02/22 05:45:30;;;;;;;30.90;15.80;;;;;;;3.47;79.95;97146.92;109042;1249;98349;-73
2023/02/22 05:47:58;;;;;;;33.90;16.90;;;;;;;3.46;80.04;97146.83;108657;1249;95647;-73
2023/02/22 05:50:27;;;;;;;34.90;18.30;;;;;;;3.48;80.06;97148.20;109081;1250;95574;-73
2023/02/22 05:52:56;;;;;;;43.00;18.10;;;;;;;3.49;80.22;97152.52;108736;1251;104559;-74
2023/02/22 05:55:24;;;;;;;36.60;17.30;;;;;;;3.50;80.15;97157.62;108724;1249;101229;-75
2023/02/22 05:57:54;;;;;;;33.10;17.50;;;;;;;3.51;80.20;97162.60;108974;1249;100016;-74
2023/02/22 06:00:31;;;;;;;34.20;17.20;;;;;;;3.53;80.21;97164.14;109041;1250;96065;-73
2023/02/22 06:03:04;;;;;;;32.40;16.90;;;;;;;3.53;80.18;97166.08;108823;1251;96426;-74
2023/02/22 06:05:33;;;;;;;31.10;15.80;;;;;;;3.53;80.26;97168.04;108933;1250;103237;-74
2023/02/22 06:08:02;;;;;;;38.00;16.60;;;;;;;3.54;80.24;97170.44;109022;1250;101260;-75
2023/02/22 06:10:30;;;;;;;32.40;16.80;;;;;;;3.53;80.39;97165.36;109018;1250;99827;-76
2023/02/22 06:13:00;;;;;;;33.70;17.20;;;;;;;3.54;80.39;97165.86;109006;1250;95792;-74
2023/02/22 06:15:29;;;;;;;33.20;18.10;;;;;;;3.55;80.31;97171.20;109090;1250;96101;-74
2023/02/22 06:17:59;;;;;;;36.90;17.90;;;;;;;3.57;80.32;97171.73;108988;1250;103237;-73
2023/02/22 06:20:28;;;;;;;37.50;18.30;;;;;;;3.58;80.37;97174.77;109021;1250;101281;-73
2023/02/22 06:22:58;;;;;;;35.30;18.80;;;;;;;3.61;80.32;97179.63;108993;1250;99502;-74
2023/02/22 06:25:30;;;;;;;36.70;19.10;;;;;;;3.64;80.44;97184.97;109035;1250;95529;-74
2023/02/22 06:27:59;;;;;;;44.60;21.80;;;;;;;3.68;80.49;97188.67;109054;1250;95631;-73
2023/02/22 06:30:29;;;;;;;42.10;22.40;;;;;;;3.71;80.45;97190.13;109039;1250;103587;-73
2023/02/22 06:32:57;;;;;;;44.80;23.90;;;;;;;3.73;80.41;97190.56;109019;1250;101139;-77
2023/02/22 06:35:25;;;;;;;46.40;24.20;;;;;;;3.73;80.37;97192.36;109028;1250;99857;-76
2023/02/22 06:37:53;;;;;;;51.40;26.50;;;;;;;3.72;80.34;97193.86;109003;1250;95544;-73
2023/02/22 06:40:22;;;;;;;43.20;26.20;;;;;;;3.72;80.32;97196.33;108996;1250;96416;-72
2023/02/22 06:42:50;;;;;;;51.80;29.80;;;;;;;3.72;80.32;97203.55;109041;1249;103137;-76
2023/02/22 06:45:18;;;;;;;47.80;23.90;;;;;;;3.71;80.15;97206.19;108714;1251;101293;-74
2023/02/22 06:47:47;;;;;;;47.30;23.20;;;;;;;3.69;80.36;97208.79;108976;1249;99596;-75
2023/02/22 06:50:34;;;;;;;38.20;21.40;;;;;;;3.70;80.41;97208.75;109025;1250;95540;-73
2023/02/22 06:53:02;;;;;;;50.70;26.70;;;;;;;3.69;80.31;97208.12;108995;1249;95971;-74
2023/02/22 06:55:34;;;;;;;60.70;32.00;;;;;;;3.68;80.45;97214.80;109068;1249;103621;-73
2023/02/22 06:58:04;;;;;;;53.60;30.20;;;;;;;3.69;80.56;97216.30;109082;1250;101254;-75
2023/02/22 07:00:33;;;;;;;58.00;30.30;;;;;;;3.72;80.55;97211.55;109070;1250;100172;-73
2023/02/22 07:03:01;;;;;;;71.00;39.30;;;;;;;3.74;80.46;97212.67;109017;1249;95511;-73
2023/02/22 07:05:30;;;;;;;68.80;36.50;;;;;;;3.77;80.46;97215.72;109027;1249;95969;-75
2023/02/22 07:08:05;;;;;;;63.00;36.20;;;;;;;3.79;80.57;97216.35;109093;1249;103236;-74
2023/02/22 07:10:35;;;;;;;65.30;35.80;;;;;;;3.84;80.53;97221.38;108675;1250;101680;-76
2023/02/22 07:13:05;;;;;;;79.40;40.80;;;;;;;3.88;80.58;97220.48;109017;1250;99836;-73
2023/02/22 07:15:35;;;;;;;79.30;43.10;;;;;;;3.92;80.54;97220.27;109038;1251;95542;-77
2023/02/22 07:18:04;;;;;;;76.40;43.60;;;;;;;3.92;80.54;97218.77;109056;1250;96069;-74
2023/02/22 07:20:32;;;;;;;77.50;43.00;;;;;;;3.94;80.60;97220.89;109028;1250;103187;-76
2023/02/22 07:23:01;;;;;;;73.50;41.90;;;;;;;3.95;80.53;97218.98;109001;1249;101650;-74
2023/02/22 07:25:29;;;;;;;76.00;40.60;;;;;;;3.95;80.53;97222.16;109028;1250;99935;-74
2023/02/22 07:27:58;;;;;;;76.70;40.10;;;;;;;3.99;80.76;97224.20;109019;1250;95812;-74
2023/02/22 07:30:30;;;;;;;71.00;36.80;;;;;;;4.03;80.65;97225.02;109011;1250;96060;-75
2023/02/22 07:33:00;;;;;;;69.60;35.10;;;;;;;4.07;80.65;97225.73;109012;1250;103740;-74
2023/02/22 07:35:31;;;;;;;56.90;30.90;;;;;;;4.08;80.46;97225.73;108781;1249;101366;-74
2023/02/22 07:38:00;;;;;;;56.60;29.90;;;;;;;4.08;80.49;97220.40;109020;1249;99982;-74
2023/02/22 07:40:28;;;;;;;62.90;34.40;;;;;;;4.10;80.51;97219.86;109026;1250;95536;-74
2023/02/22 07:42:59;;;;;;;69.60;35.30;;;;;;;4.13;80.46;97222.66;109008;1250;96019;-74
2023/02/22 07:45:30;;;;;;;58.30;30.70;;;;;;;4.15;80.55;97226.55;108841;1249;104110;-73
2023/02/22 07:47:59;;;;;;;58.90;29.70;;;;;;;4.16;80.56;97225.31;109058;1250;101236;-75
2023/02/22 07:50:30;;;;;;;62.80;32.80;;;;;;;4.19;80.47;97224.30;109004;1249;99963;-73
2023/02/22 07:53:02;;;;;;;53.40;30.50;;;;;;;4.22;80.51;97226.71;108738;1251;95626;-75
2023/02/22 07:55:31;;;;;;;60.50;30.10;;;;;;;4.25;80.39;97226.09;109039;1250;95562;-75
2023/02/22 07:58:03;;;;;;;62.70;31.20;;;;;;;4.27;80.50;97225.64;108869;1250;203338;-74
2023/02/22 08:00:40;;;;;;;71.40;35.70;;;;;;;4.31;80.49;97221.23;109056;1250;101326;-74
2023/02/22 08:03:11;;;;;;;68.90;34.30;;;;;;;4.37;80.38;97224.28;109035;1249;99756;-74
2023/02/22 08:05:42;;;;;;;64.10;32.80;;;;;;;4.39;80.12;97227.89;109035;1250;95510;-76
2023/02/22 08:08:11;;;;;;;71.20;33.70;;;;;;;4.37;79.98;97229.12;108790;1252;95830;-75
2023/02/22 08:10:39;;;;;;;63.00;31.20;;;;;;;4.39;79.97;97227.48;108717;1250;103666;-73
2023/02/22 08:13:07;;;;;;;61.10;28.40;;;;;;;4.44;79.99;97225.33;108652;1251;101278;-74
2023/02/22 08:15:41;;;;;;;57.70;29.50;;;;;;;4.50;80.08;97225.66;108672;1251;100318;-73
2023/02/22 08:18:15;;;;;;;66.10;29.50;;;;;;;4.52;79.85;97230.02;108933;1251;95594;-74
2023/02/22 08:20:45;;;;;;;56.20;27.50;;;;;;;4.55;79.88;97228.08;108672;1251;96536;-74
2023/02/22 08:23:15;;;;;;;50.00;26.90;;;;;;;4.61;79.89;97227.55;108899;1253;103657;-75
2023/02/22 08:25:43;;;;;;;49.10;26.30;;;;;;;4.66;79.76;97227.16;108677;1251;100587;-76
2023/02/22 08:28:17;;;;;;;65.70;29.50;;;;;;;4.68;79.72;97226.85;108910;1251;99592;-73
2023/02/22 08:30:45;;;;;;;60.20;30.40;;;;;;;4.71;79.61;97226.91;108480;1251;95687;-74
2023/02/22 08:33:18;;;;;;;62.10;31.20;;;;;;;4.74;79.54;97228.16;108958;1251;96028;-77
2023/02/22 08:35:48;;;;;;;72.70;29.70;;;;;;;4.78;79.68;97224.50;108927;1251;104041;-75
2023/02/22 08:38:20;;;;;;;62.70;30.20;;;;;;;4.84;79.62;97225.55;108898;1250;100044;-74
2023/02/22 08:40:49;;;;;;;81.60;37.40;;;;;;;4.91;79.29;97227.30;108724;1251;101276;-73
2023/02/22 08:43:19;;;;;;;63.60;36.70;;;;;;;4.94;79.31;97227.27;108912;1251;95686;-74
2023/02/22 08:45:47;;;;;;;62.40;33.40;;;;;;;4.95;79.46;97228.90;108935;1251;96049;-74
2023/02/22 08:48:17;;;;;;;62.10;30.60;;;;;;;4.97;79.47;97230.80;108935;1251;103104;-74
2023/02/22 08:50:45;;;;;;;53.20;27.50;;;;;;;5.02;79.47;97231.27;108915;1251;101232;-74
2023/02/22 08:53:16;;;;;;;59.70;27.40;;;;;;;5.08;79.37;97234.09;108867;1251;99456;-74
2023/02/22 08:55:45;;;;;;;50.60;23.00;;;;;;;5.12;79.29;97231.48;108891;1251;95538;-76
2023/02/22 08:58:14;;;;;;;45.70;18.50;;;;;;;5.15;79.26;97229.75;108888;1251;95981;-74
2023/02/22 09:00:43;;;;;;;38.60;19.30;;;;;;;5.22;79.20;97226.05;108787;1253;103191;-74
2023/02/22 09:03:14;;;;;;;46.10;19.30;;;;;;;5.30;79.13;97225.55;108931;1253;101472;-75
2023/02/22 09:05:43;;;;;;;43.80;20.10;;;;;;;5.42;79.09;97225.03;108898;1251;98952;-75
2023/02/22 09:08:12;;;;;;;44.10;21.90;;;;;;;5.58;79.04;97225.09;108858;1251;95817;-74
2023/02/22 09:10:40;;;;;;;51.20;23.20;;;;;;;5.71;78.74;97225.61;108567;1252;96035;-75
2023/02/22 09:13:09;;;;;;;42.40;19.80;;;;;;;5.82;78.44;97226.13;108633;1251;103943;-74
2023/02/22 09:15:38;;;;;;;41.40;18.00;;;;;;;5.91;78.24;97229.19;108569;1255;101331;-74
2023/02/22 09:18:09;;;;;;;37.00;17.50;;;;;;;5.97;77.88;97234.07;108337;1255;99987;-73
2023/02/22 09:20:37;;;;;;;41.00;17.00;;;;;;;6.03;77.76;97232.11;108501;1255;95628;-75
2023/02/22 09:23:08;;;;;;;43.30;19.30;;;;;;;6.08;77.26;97227.52;108558;1256;96064;-76
2023/02/22 09:25:37;;;;;;;32.90;13.80;;;;;;;6.16;76.99;97228.28;108562;1256;111814;-74
2023/02/22 09:28:05;;;;;;;27.90;10.80;;;;;;;6.21;76.46;97229.78;108543;1255;101483;-73
2023/02/22 09:30:36;;;;;;;33.40;9.80;;;;;;;6.27;76.04;97230.13;108512;1256;99696;-74
2023/02/22 09:33:08;;;;;;;23.90;8.30;;;;;;;6.32;75.44;97230.77;108525;1255;95575;-73
2023/02/22 09:35:40;;;;;;;20.70;7.60;;;;;;;6.35;74.94;97228.02;108566;1255;96122;-74
2023/02/22 09:38:10;;;;;;;26.20;7.60;;;;;;;6.41;74.80;97229.22;108599;1256;103546;-76
2023/02/22 09:40:44;;;;;;;19.80;8.40;;;;;;;6.46;74.82;97227.68;108545;1256;101357;-75
2023/02/22 09:43:18;;;;;;;26.30;9.00;;;;;;;6.59;74.64;97227.36;108281;1256;99478;-74
2023/02/22 09:46:12;;;;;;;26.40;9.00;;;;;;;6.81;74.21;97223.70;108486;1255;95587;-77
2023/02/22 09:48:57;;;;;;;28.20;8.30;;;;;;;6.89;73.99;97218.52;108916;1251;96027;-78
2023/02/22 09:51:35;;;;;;;26.90;8.30;;;;;;;6.95;73.42;97212.44;108919;1250;103336;-74
2023/02/22 09:54:10;;;;;;;24.60;8.80;;;;;;;7.06;73.15;97213.02;108935;1250;101478;-77
2023/02/22 09:56:39;;;;;;;34.10;8.80;;;;;;;7.28;72.98;97216.58;108617;1251;99534;-74
2023/02/22 09:59:12;;;;;;;29.60;9.40;;;;;;;7.56;72.95;97214.33;108843;1254;95613;-74
2023/02/22 10:01:45;;;;;;;23.80;8.60;;;;;;;7.71;72.36;97209.80;108894;1251;96459;-74
2023/02/22 10:05:05;;;;;;;23.50;7.40;;;;;;;7.82;71.89;97209.70;108898;1250;111678;-74
2023/02/22 10:07:46;;;;;;;21.70;6.30;;;;;;;7.95;71.44;97209.23;108335;1256;101182;-74
2023/02/22 10:10:18;;;;;;;21.20;5.90;;;;;;;8.07;70.39;97206.17;108346;1256;99697;-74
2023/02/22 10:12:47;;;;;;;21.60;6.20;;;;;;;8.23;69.53;97205.48;108258;1257;95848;-75
2023/02/22 10:15:34;;;;;;;20.60;6.60;;;;;;;8.40;69.76;97202.35;108330;1257;96047;-77
2023/02/22 10:18:26;;;;;;;21.50;8.30;;;;;;;8.82;70.04;97203.73;108353;1256;103209;-77
2023/02/22 10:21:02;;;;;;;20.80;7.60;;;;;;;9.05;69.08;97199.40;108321;1256;101371;-74
2023/02/22 10:23:45;;;;;;;18.90;6.90;;;;;;;9.07;68.21;97193.56;108316;1256;98503;-75
2023/02/22 10:26:24;;;;;;;26.20;9.50;;;;;;;9.10;67.71;97194.44;108330;1256;95627;-77
2023/02/22 10:29:01;;;;;;;23.60;7.30;;;;;;;9.39;67.78;97195.24;108346;1256;96108;-75
2023/02/22 10:31:33;;;;;;;17.20;6.60;;;;;;;9.70;67.04;97193.50;108365;1256;102554;-76
2023/02/22 10:34:27;;;;;;;21.90;6.00;;;;;;;9.60;66.22;97186.14;108219;1257;100426;-74
2023/02/22 10:37:08;;;;;;;24.90;7.10;;;;;;;9.33;66.11;97182.12;108315;1256;99866;-74
2023/02/22 10:39:39;;;;;;;24.60;6.00;;;;;;;9.11;65.21;97181.73;108372;1256;95662;-78
2023/02/22 10:42:08;;;;;;;21.30;6.50;;;;;;;8.91;65.52;97174.96;108320;1256;95689;-76
2023/02/22 10:44:38;;;;;;;19.50;8.60;;;;;;;8.85;65.45;97175.70;108616;1251;103268;-74
2023/02/22 10:47:11;;;;;;;21.80;6.50;;;;;;;8.71;65.24;97174.70;108878;1250;101526;-73
2023/02/22 10:49:49;;;;;;;20.40;6.20;;;;;;;8.63;65.26;97173.82;108829;1251;99919;-74
2023/02/22 10:52:26;;;;;;;21.30;6.60;;;;;;;8.51;64.76;97170.06;108868;1251;95853;-74
2023/02/22 10:54:58;;;;;;;21.30;6.80;;;;;;;8.39;64.69;97169.70;108878;1251;96029;-76
2023/02/22 10:57:37;;;;;;;22.90;7.60;;;;;;;8.38;65.06;97172.80;108544;1251;103368;-74
2023/02/22 11:00:18;;;;;;;19.20;6.70;;;;;;;8.50;64.88;97172.55;108916;1251;101480;-73
2023/02/22 11:02:58;;;;;;;25.60;11.10;;;;;;;8.53;64.89;97173.09;108758;1253;99483;-74
2023/02/22 11:05:38;;;;;;;18.60;7.30;;;;;;;8.56;64.11;97169.25;108748;1252;95536;-76
2023/02/22 11:08:25;;;;;;;22.70;7.10;;;;;;;8.53;64.19;97168.25;108804;1252;96081;-73
2023/02/22 11:11:00;;;;;;;21.60;6.60;;;;;;;8.63;64.17;97164.75;108829;1252;102795;-75
2023/02/22 11:13:32;;;;;;;19.60;6.30;;;;;;;8.69;63.85;97163.35;108827;1254;101390;-74
2023/02/22 11:16:20;;;;;;;24.10;7.90;;;;;;;8.58;63.40;97159.15;108820;1252;99895;-74
2023/02/22 11:18:48;;;;;;;20.50;6.80;;;;;;;8.45;63.39;97156.69;108765;1251;95544;-74
2023/02/22 11:21:23;;;;;;;21.90;6.30;;;;;;;8.42;63.55;97157.55;108798;1252;96176;-74
2023/02/22 11:24:05;;;;;;;21.30;6.20;;;;;;;8.32;63.16;97153.38;108837;1252;103715;-74
2023/02/22 11:26:49;;;;;;;22.40;6.10;;;;;;;8.28;63.54;97150.50;108859;1252;101561;-74
2023/02/22 11:29:30;;;;;;;19.20;6.90;;;;;;;8.37;63.37;97149.59;108778;1253;100161;-74
2023/02/22 11:32:02;;;;;;;20.40;8.10;;;;;;;8.38;62.55;97146.86;108843;1253;95539;-78
2023/02/22 11:34:38;;;;;;;23.50;6.80;;;;;;;8.56;63.09;97151.29;108556;1253;96754;-76
2023/02/22 11:37:21;;;;;;;24.90;6.80;;;;;;;8.97;63.27;97148.41;108507;1251;102618;-75
2023/02/22 11:40:12;;;;;;;28.20;11.00;;;;;;;9.27;62.34;97150.01;108591;1253;101344;-77